sensor_id;sensor_type;location;lat;lon;timestamp;pressure;altitude;pressure_sealevel;temperature;humidity
22389;BME280;11362;48.102;11.620;2023-04-30T00:00:48;95376.53;;;21.41;40.32
22389;BME280;11362;48.102;11.620;2023-04-30T00:03:13;95375.72;;;21.40;40.28
22389;BME280;11362;48.102;11.620;2023-04-30T00:05:38;95373.34;;;21.42;40.17
22389;BME280;11362;48.102;11.620;2023-04-30T00:08:04;95369.81;;;21.42;40.09
22389;BME280;11362;48.102;11.620;2023-04-30T00:10:29;95384.38;;;21.42;40.20
22389;BME280;11362;48.102;11.620;2023-04-30T00:12:54;95378.88;;;21.42;40.08
22389;BME280;11362;48.102;11.620;2023-04-30T00:15:20;95378.09;;;21.42;40.19
22389;BME280;11362;48.102;11.620;2023-04-30T00:17:45;95384.38;;;21.42;40.39
22389;BME280;11362;48.102;11.620;2023-04-30T00:20:11;95378.88;;;21.42;40.22
22389;BME280;11362;48.102;11.620;2023-04-30T00:22:36;95387.56;;;21.44;40.46
22389;BME280;11362;48.102;11.620;2023-04-30T00:25:01;95389.91;;;21.42;40.19
22389;BME280;11362;48.102;11.620;2023-04-30T00:27:26;95394.28;;;21.43;40.22
22389;BME280;11362;48.102;11.620;2023-04-30T00:29:52;95397.81;;;21.44;40.44
22389;BME280;11362;48.102;11.620;2023-04-30T00:32:17;95393.09;;;21.44;40.08
22389;BME280;11362;48.102;11.620;2023-04-30T00:34:42;95398.63;;;21.44;40.19
22389;BME280;11362;48.102;11.620;2023-04-30T00:37:08;95393.84;;;21.45;40.35
22389;BME280;11362;48.102;11.620;2023-04-30T00:39:33;95396.63;;;21.45;40.38
22389;BME280;11362;48.102;11.620;2023-04-30T00:41:58;95395.44;;;21.46;40.24
22389;BME280;11362;48.102;11.620;2023-04-30T00:44:23;95391.09;;;21.45;40.44
22389;BME280;11362;48.102;11.620;2023-04-30T00:46:49;95396.22;;;21.46;40.28
22389;BME280;11362;48.102;11.620;2023-04-30T00:49:14;95397.03;;;21.47;40.09
22389;BME280;11362;48.102;11.620;2023-04-30T00:51:40;95399.00;;;21.46;40.18
22389;BME280;11362;48.102;11.620;2023-04-30T00:54:05;95400.97;;;21.46;40.32
22389;BME280;11362;48.102;11.620;2023-04-30T00:56:31;95399.81;;;21.47;40.28
22389;BME280;11362;48.102;11.620;2023-04-30T00:58:56;95401.75;;;21.46;40.32
22389;BME280;11362;48.102;11.620;2023-04-30T01:01:24;95393.06;;;21.48;40.04
22389;BME280;11362;48.102;11.620;2023-04-30T01:03:49;95397.03;;;21.47;40.26
22389;BME280;11362;48.102;11.620;2023-04-30T01:06:14;95388.75;;;21.47;40.16
22389;BME280;11362;48.102;11.620;2023-04-30T01:08:40;95391.50;;;21.47;40.03
22389;BME280;11362;48.102;11.620;2023-04-30T01:14:12;95402.94;;;21.49;39.93
22389;BME280;11362;48.102;11.620;2023-04-30T01:16:51;95403.34;;;21.47;40.15
22389;BME280;11362;48.102;11.620;2023-04-30T01:19:45;95414.00;;;21.49;40.22
22389;BME280;11362;48.102;11.620;2023-04-30T01:25:06;95414.00;;;21.49;39.90
22389;BME280;11362;48.102;11.620;2023-04-30T01:28:00;95411.22;;;21.49;40.05
22389;BME280;11362;48.102;11.620;2023-04-30T01:30:26;95413.56;;;21.50;39.99
22389;BME280;11362;48.102;11.620;2023-04-30T01:32:51;95405.72;;;21.49;39.97
22389;BME280;11362;48.102;11.620;2023-04-30T01:35:17;95408.03;;;21.50;40.07
22389;BME280;11362;48.102;11.620;2023-04-30T01:38:13;95414.38;;;21.51;39.96
22389;BME280;11362;48.102;11.620;2023-04-30T01:40:52;95412.81;;;21.50;40.14
22389;BME280;11362;48.102;11.620;2023-04-30T01:46:32;95415.94;;;21.52;39.92
22389;BME280;11362;48.102;11.620;2023-04-30T01:49:34;95412.00;;;21.53;39.95
22389;BME280;11362;48.102;11.620;2023-04-30T01:52:42;95417.53;;;21.53;40.12
22389;BME280;11362;48.102;11.620;2023-04-30T01:55:18;95415.94;;;21.52;40.05
22389;BME280;11362;48.102;11.620;2023-04-30T01:58:04;95416.75;;;21.52;40.09
22389;BME280;11362;48.102;11.620;2023-04-30T02:00:29;95415.56;;;21.53;40.24
22389;BME280;11362;48.102;11.620;2023-04-30T02:02:55;95408.03;;;21.54;40.06
22389;BME280;11362;48.102;11.620;2023-04-30T02:05:21;95414.75;;;21.53;39.81
22389;BME280;11362;48.102;11.620;2023-04-30T02:07:47;95419.09;;;21.54;39.97
22389;BME280;11362;48.102;11.620;2023-04-30T02:10:16;95415.16;;;21.55;39.95
22389;BME280;11362;48.102;11.620;2023-04-30T02:12:42;95413.97;;;21.56;40.00
22389;BME280;11362;48.102;11.620;2023-04-30T02:15:08;95416.72;;;21.56;39.93
22389;BME280;11362;48.102;11.620;2023-04-30T02:17:33;95412.41;;;21.55;40.04
22389;BME280;11362;48.102;11.620;2023-04-30T02:19:59;95412.78;;;21.57;39.89
22389;BME280;11362;48.102;11.620;2023-04-30T02:22:25;95418.31;;;21.57;39.99
22389;BME280;11362;48.102;11.620;2023-04-30T02:24:50;95418.31;;;21.57;39.96
22389;BME280;11362;48.102;11.620;2023-04-30T02:27:16;95419.06;;;21.57;39.97
22389;BME280;11362;48.102;11.620;2023-04-30T02:29:42;95424.22;;;21.59;39.89
22389;BME280;11362;48.102;11.620;2023-04-30T02:32:07;95428.56;;;21.60;40.21
22389;BME280;11362;48.102;11.620;2023-04-30T02:34:32;95427.78;;;21.59;39.83
22389;BME280;11362;48.102;11.620;2023-04-30T02:36:57;95430.13;;;21.61;39.63
22389;BME280;11362;48.102;11.620;2023-04-30T02:39:23;95432.88;;;21.61;40.04
22389;BME280;11362;48.102;11.620;2023-04-30T02:41:48;95427.34;;;21.61;40.05
22389;BME280;11362;48.102;11.620;2023-04-30T02:44:14;95419.06;;;21.61;39.89
22389;BME280;11362;48.102;11.620;2023-04-30T02:46:39;95419.06;;;21.61;40.04
22389;BME280;11362;48.102;11.620;2023-04-30T02:49:04;95429.75;;;21.59;39.80
22389;BME280;11362;48.102;11.620;2023-04-30T02:51:29;95429.34;;;21.60;39.90
22389;BME280;11362;48.102;11.620;2023-04-30T02:53:55;95433.28;;;21.63;40.09
22389;BME280;11362;48.102;11.620;2023-04-30T02:56:20;95426.97;;;21.62;39.96
22389;BME280;11362;48.102;11.620;2023-04-30T02:58:46;95431.31;;;21.63;39.92
22389;BME280;11362;48.102;11.620;2023-04-30T03:01:11;95445.13;;;21.63;40.07
22389;BME280;11362;48.102;11.620;2023-04-30T03:03:36;95441.16;;;21.64;39.88
22389;BME280;11362;48.102;11.620;2023-04-30T03:06:01;95443.16;;;21.64;39.97
22389;BME280;11362;48.102;11.620;2023-04-30T03:08:27;95438.41;;;21.64;40.03
22389;BME280;11362;48.102;11.620;2023-04-30T03:10:52;95438.41;;;21.64;39.90
22389;BME280;11362;48.102;11.620;2023-04-30T03:13:17;95432.09;;;21.64;40.08
22389;BME280;11362;48.102;11.620;2023-04-30T03:15:43;95432.50;;;21.66;39.82
22389;BME280;11362;48.102;11.620;2023-04-30T03:18:09;95436.84;;;21.67;40.06
22389;BME280;11362;48.102;11.620;2023-04-30T03:20:34;95423.03;;;21.67;39.99
22389;BME280;11362;48.102;11.620;2023-04-30T03:22:59;95428.56;;;21.67;39.77
22389;BME280;11362;48.102;11.620;2023-04-30T03:25:25;95425.41;;;21.68;39.88
22389;BME280;11362;48.102;11.620;2023-04-30T03:27:50;95421.84;;;21.68;39.83
22389;BME280;11362;48.102;11.620;2023-04-30T03:30:15;95424.22;;;21.69;40.06
22389;BME280;11362;48.102;11.620;2023-04-30T03:32:41;95424.59;;;21.68;40.09
22389;BME280;11362;48.102;11.620;2023-04-30T03:35:07;95416.72;;;21.70;39.87
22389;BME280;11362;48.102;11.620;2023-04-30T03:37:32;95412.75;;;21.71;39.89
22389;BME280;11362;48.102;11.620;2023-04-30T03:39:57;95413.13;;;21.73;39.79
22389;BME280;11362;48.102;11.620;2023-04-30T03:42:23;95410.38;;;21.73;39.96
22389;BME280;11362;48.102;11.620;2023-04-30T03:44:48;95405.63;;;21.73;39.92
22389;BME280;11362;48.102;11.620;2023-04-30T03:47:13;95406.41;;;21.74;40.05
22389;BME280;11362;48.102;11.620;2023-04-30T03:49:38;95410.38;;;21.73;39.73
22389;BME280;11362;48.102;11.620;2023-04-30T03:52:04;95413.50;;;21.75;40.05
22389;BME280;11362;48.102;11.620;2023-04-30T03:54:29;95411.16;;;21.77;40.08
22389;BME280;11362;48.102;11.620;2023-04-30T03:56:55;95400.09;;;21.77;39.91
22389;BME280;11362;48.102;11.620;2023-04-30T03:59:20;95401.28;;;21.76;39.90
22389;BME280;11362;48.102;11.620;2023-04-30T04:01:45;95398.53;;;21.76;40.23
22389;BME280;11362;48.102;11.620;2023-04-30T04:04:11;95407.19;;;21.78;39.81
22389;BME280;11362;48.102;11.620;2023-04-30T04:06:36;95415.09;;;21.79;39.92
22389;BME280;11362;48.102;11.620;2023-04-30T04:09:01;95410.34;;;21.80;39.88
22389;BME280;11362;48.102;11.620;2023-04-30T04:11:27;95411.13;;;21.80;39.71
22389;BME280;11362;48.102;11.620;2023-04-30T04:13:52;95409.53;;;21.83;39.71
22389;BME280;11362;48.102;11.620;2023-04-30T04:16:17;95415.06;;;21.83;39.76
22389;BME280;11362;48.102;11.620;2023-04-30T04:18:43;95419.81;;;21.82;39.75
22389;BME280;11362;48.102;11.620;2023-04-30T04:21:08;95427.31;;;21.82;40.17
22389;BME280;11362;48.102;11.620;2023-04-30T04:23:33;95423.34;;;21.83;40.13
22389;BME280;11362;48.102;11.620;2023-04-30T04:25:58;95417.81;;;21.86;40.05
22389;BME280;11362;48.102;11.620;2023-04-30T04:28:24;95429.25;;;21.92;40.25
22389;BME280;11362;48.102;11.620;2023-04-30T04:30:49;95431.22;;;21.91;40.42
22389;BME280;11362;48.102;11.620;2023-04-30T04:33:14;95431.22;;;21.95;40.47
22389;BME280;11362;48.102;11.620;2023-04-30T04:35:40;95441.06;;;21.96;40.51
22389;BME280;11362;48.102;11.620;2023-04-30T04:38:05;95437.53;;;21.99;40.42
22389;BME280;11362;48.102;11.620;2023-04-30T04:40:30;95439.09;;;21.96;40.40
22389;BME280;11362;48.102;11.620;2023-04-30T04:42:55;95443.47;;;21.94;40.65
22389;BME280;11362;48.102;11.620;2023-04-30T04:45:21;95439.50;;;21.95;40.61
22389;BME280;11362;48.102;11.620;2023-04-30T04:47:46;95440.69;;;21.94;40.53
22389;BME280;11362;48.102;11.620;2023-04-30T04:50:12;95446.59;;;21.96;40.56
22389;BME280;11362;48.102;11.620;2023-04-30T04:52:37;95445.41;;;21.97;40.56
22389;BME280;11362;48.102;11.620;2023-04-30T04:55:03;95441.47;;;21.98;40.79
22389;BME280;11362;48.102;11.620;2023-04-30T04:57:28;95443.44;;;21.97;40.61
22389;BME280;11362;48.102;11.620;2023-04-30T04:59:54;95447.00;;;21.98;40.60
22389;BME280;11362;48.102;11.620;2023-04-30T05:02:19;95449.34;;;21.99;40.92
22389;BME280;11362;48.102;11.620;2023-04-30T05:04:44;95448.59;;;21.99;40.91
22389;BME280;11362;48.102;11.620;2023-04-30T05:07:10;95448.97;;;22.01;40.81
22389;BME280;11362;48.102;11.620;2023-04-30T05:09:35;95453.69;;;22.00;40.52
22389;BME280;11362;48.102;11.620;2023-04-30T05:12:00;95448.97;;;22.01;40.83
22389;BME280;11362;48.102;11.620;2023-04-30T05:14:25;95459.63;;;22.02;41.04
22389;BME280;11362;48.102;11.620;2023-04-30T05:16:51;95461.59;;;22.02;40.85
22389;BME280;11362;48.102;11.620;2023-04-30T05:19:16;95458.44;;;22.03;40.79
22389;BME280;11362;48.102;11.620;2023-04-30T05:21:41;95459.22;;;22.04;40.89
22389;BME280;11362;48.102;11.620;2023-04-30T05:24:06;95461.56;;;22.09;40.80
22389;BME280;11362;48.102;11.620;2023-04-30T05:26:32;95442.56;;;22.11;40.75
22389;BME280;11362;48.102;11.620;2023-04-30T05:28:57;95448.09;;;22.11;40.97
22389;BME280;11362;48.102;11.620;2023-04-30T05:31:22;95442.56;;;22.14;40.83
22389;BME280;11362;48.102;11.620;2023-04-30T05:33:48;95446.50;;;22.17;41.14
22389;BME280;11362;48.102;11.620;2023-04-30T05:36:13;95461.91;;;22.18;40.91
22389;BME280;11362;48.102;11.620;2023-04-30T05:38:38;95470.19;;;22.18;40.78
22389;BME280;11362;48.102;11.620;2023-04-30T05:41:04;95462.31;;;22.16;41.18
22389;BME280;11362;48.102;11.620;2023-04-30T05:43:29;95476.53;;;22.22;41.33
22389;BME280;11362;48.102;11.620;2023-04-30T05:45:54;95463.84;;;22.28;41.41
22389;BME280;11362;48.102;11.620;2023-04-30T05:48:20;95461.44;;;22.30;41.46
22389;BME280;11362;48.102;11.620;2023-04-30T05:50:45;95465.78;;;22.31;41.33
22389;BME280;11362;48.102;11.620;2023-04-30T05:53:12;95462.63;;;22.32;41.33
22389;BME280;11362;48.102;11.620;2023-04-30T05:55:38;95459.84;;;22.36;41.33
22389;BME280;11362;48.102;11.620;2023-04-30T05:58:03;95458.28;;;22.31;41.31
22389;BME280;11362;48.102;11.620;2023-04-30T06:00:28;95458.31;;;22.28;41.59
22389;BME280;11362;48.102;11.620;2023-04-30T06:02:53;95459.06;;;22.32;41.49
22389;BME280;11362;48.102;11.620;2023-04-30T06:05:19;95457.50;;;22.31;41.27
22389;BME280;11362;48.102;11.620;2023-04-30T06:07:44;95463.84;;;22.28;41.32
22389;BME280;11362;48.102;11.620;2023-04-30T06:10:09;95468.19;;;22.29;41.24
22389;BME280;11362;48.102;11.620;2023-04-30T06:12:35;95465.78;;;22.31;41.34
22389;BME280;11362;48.102;11.620;2023-04-30T06:15:00;95471.31;;;22.34;41.24
22389;BME280;11362;48.102;11.620;2023-04-30T06:17:25;95461.03;;;22.35;41.26
22389;BME280;11362;48.102;11.620;2023-04-30T06:19:51;95461.78;;;22.39;41.51
22389;BME280;11362;48.102;11.620;2023-04-30T06:22:16;95466.94;;;22.40;41.45
22389;BME280;11362;48.102;11.620;2023-04-30T06:24:41;95461.41;;;22.40;41.42
22389;BME280;11362;48.102;11.620;2023-04-30T06:27:07;95457.84;;;22.43;41.26
22389;BME280;11362;48.102;11.620;2023-04-30T06:29:32;95455.88;;;22.44;41.35
22389;BME280;11362;48.102;11.620;2023-04-30T06:31:57;95454.66;;;22.45;41.37
22389;BME280;11362;48.102;11.620;2023-04-30T06:34:22;95456.19;;;22.53;41.87
22389;BME280;11362;48.102;11.620;2023-04-30T06:36:48;95459.75;;;22.57;41.52
22389;BME280;11362;48.102;11.620;2023-04-30T06:39:14;95462.09;;;22.58;41.67
22389;BME280;11362;48.102;11.620;2023-04-30T06:41:40;95475.56;;;22.56;41.52
22389;BME280;11362;48.102;11.620;2023-04-30T06:44:05;95481.09;;;22.56;41.64
22389;BME280;11362;48.102;11.620;2023-04-30T06:46:30;95473.19;;;22.55;41.42
22389;BME280;11362;48.102;11.620;2023-04-30T06:48:56;95468.84;;;22.54;41.49
22389;BME280;11362;48.102;11.620;2023-04-30T06:51:21;95454.25;;;22.50;41.05
22389;BME280;11362;48.102;11.620;2023-04-30T06:53:46;95458.59;;;22.51;40.83
22389;BME280;11362;48.102;11.620;2023-04-30T06:56:11;95455.81;;;22.51;40.99
22389;BME280;11362;48.102;11.620;2023-04-30T06:58:37;95460.56;;;22.50;40.66
22389;BME280;11362;48.102;11.620;2023-04-30T07:01:02;95461.34;;;22.51;40.61
22389;BME280;11362;48.102;11.620;2023-04-30T07:03:27;95461.34;;;22.51;40.62
22389;BME280;11362;48.102;11.620;2023-04-30T07:05:53;95460.16;;;22.52;40.62
22389;BME280;11362;48.102;11.620;2023-04-30T07:08:18;95454.22;;;22.53;40.64
22389;BME280;11362;48.102;11.620;2023-04-30T07:10:43;95460.50;;;22.57;40.52
22389;BME280;11362;48.102;11.620;2023-04-30T07:13:09;95444.31;;;22.56;40.59
22389;BME280;11362;48.102;11.620;2023-04-30T07:15:34;95455.78;;;22.58;40.49
22389;BME280;11362;48.102;11.620;2023-04-30T07:17:59;95453.38;;;22.60;40.55
22389;BME280;11362;48.102;11.620;2023-04-30T07:20:25;95449.84;;;22.59;40.47
22389;BME280;11362;48.102;11.620;2023-04-30T07:22:50;95452.63;;;22.56;40.57
22389;BME280;11362;48.102;11.620;2023-04-30T07:25:15;95449.88;;;22.56;40.58
22389;BME280;11362;48.102;11.620;2023-04-30T07:27:41;95449.44;;;22.57;40.44
22389;BME280;11362;48.102;11.620;2023-04-30T07:30:07;95453.38;;;22.60;40.46
22389;BME280;11362;48.102;11.620;2023-04-30T07:32:34;95453.78;;;22.58;40.32
22389;BME280;11362;48.102;11.620;2023-04-30T07:34:59;95449.44;;;22.57;40.58
22389;BME280;11362;48.102;11.620;2023-04-30T07:37:24;95460.50;;;22.61;40.65
22389;BME280;11362;48.102;11.620;2023-04-30T07:39:50;95454.53;;;22.66;40.45
22389;BME280;11362;48.102;11.620;2023-04-30T07:42:15;95454.91;;;22.68;40.42
22389;BME280;11362;48.102;11.620;2023-04-30T07:44:40;95435.13;;;22.69;40.45
22389;BME280;11362;48.102;11.620;2023-04-30T07:47:05;95426.00;;;22.69;40.64
22389;BME280;11362;48.102;11.620;2023-04-30T07:49:31;95465.97;;;22.68;40.61
22389;BME280;11362;48.102;11.620;2023-04-30T07:51:56;95426.84;;;22.66;40.36
22389;BME280;11362;48.102;11.620;2023-04-30T07:54:21;95420.16;;;22.60;40.50
22389;BME280;11362;48.102;11.620;2023-04-30T07:56:47;95422.13;;;22.63;40.36
22389;BME280;11362;48.102;11.620;2023-04-30T07:59:12;95440.66;;;22.69;40.32
22389;BME280;11362;48.102;11.620;2023-04-30T08:01:37;95439.81;;;22.72;40.51
22389;BME280;11362;48.102;11.620;2023-04-30T08:04:03;95457.16;;;22.83;40.41
22389;BME280;11362;48.102;11.620;2023-04-30T08:06:28;95442.56;;;22.76;40.36
22389;BME280;11362;48.102;11.620;2023-04-30T08:08:53;95443.38;;;22.76;40.37
22389;BME280;11362;48.102;11.620;2023-04-30T08:11:18;95445.31;;;22.79;40.26
22389;BME280;11362;48.102;11.620;2023-04-30T08:13:44;95442.94;;;22.81;40.29
22389;BME280;11362;48.102;11.620;2023-04-30T08:16:09;95449.19;;;22.89;40.38
22389;BME280;11362;48.102;11.620;2023-04-30T08:18:34;95439.22;;;22.98;40.50
22389;BME280;11362;48.102;11.620;2023-04-30T08:21:00;95447.47;;;23.05;40.44
22389;BME280;11362;48.102;11.620;2023-04-30T08:23:26;95445.16;;;22.97;40.98
22389;BME280;11362;48.102;11.620;2023-04-30T08:25:51;95436.88;;;22.97;40.84
22389;BME280;11362;48.102;11.620;2023-04-30T08:28:16;95445.22;;;22.90;40.81
22389;BME280;11362;48.102;11.620;2023-04-30T08:30:41;95442.06;;;22.91;40.80
22389;BME280;11362;48.102;11.620;2023-04-30T08:33:07;95444.44;;;22.93;40.95
22389;BME280;11362;48.102;11.620;2023-04-30T08:35:32;95444.44;;;22.93;41.11
22389;BME280;11362;48.102;11.620;2023-04-30T08:37:57;95447.53;;;22.98;40.92
22389;BME280;11362;48.102;11.620;2023-04-30T08:40:23;95440.88;;;22.92;40.96
22389;BME280;11362;48.102;11.620;2023-04-30T08:42:59;95442.47;;;22.90;41.10
22389;BME280;11362;48.102;11.620;2023-04-30T08:45:26;95444.84;;;22.91;41.05
22389;BME280;11362;48.102;11.620;2023-04-30T08:47:52;95445.59;;;22.95;41.35
22389;BME280;11362;48.102;11.620;2023-04-30T08:50:18;95421.84;;;22.94;41.29
22389;BME280;11362;48.102;11.620;2023-04-30T08:52:43;95417.53;;;22.90;41.12
22389;BME280;11362;48.102;11.620;2023-04-30T08:55:09;95425.84;;;22.90;41.32
22389;BME280;11362;48.102;11.620;2023-04-30T08:57:35;95417.09;;;22.95;41.28
22389;BME280;11362;48.102;11.620;2023-04-30T09:00:00;95422.28;;;22.93;41.11
22389;BME280;11362;48.102;11.620;2023-04-30T09:02:26;95427.03;;;22.89;41.02
22389;BME280;11362;48.102;11.620;2023-04-30T09:04:51;95413.53;;;22.94;40.92
22389;BME280;11362;48.102;11.620;2023-04-30T09:07:17;95425.41;;;22.95;41.10
22389;BME280;11362;48.102;11.620;2023-04-30T09:09:42;95429.34;;;22.97;40.98
22389;BME280;11362;48.102;11.620;2023-04-30T09:12:15;95424.22;;;22.96;40.50
22389;BME280;11362;48.102;11.620;2023-04-30T09:14:56;95427.41;;;22.91;40.62
22389;BME280;11362;48.102;11.620;2023-04-30T09:17:21;95383.56;;;22.86;40.36
22389;BME280;11362;48.102;11.620;2023-04-30T09:19:47;95386.31;;;22.86;40.61
22389;BME280;11362;48.102;11.620;2023-04-30T09:22:22;95387.53;;;22.85;40.65
22389;BME280;11362;48.102;11.620;2023-04-30T09:24:49;95392.25;;;22.84;40.57
22389;BME280;11362;48.102;11.620;2023-04-30T09:27:19;95427.88;;;22.86;40.55
22389;BME280;11362;48.102;11.620;2023-04-30T09:29:45;95425.47;;;22.88;40.54
22389;BME280;11362;48.102;11.620;2023-04-30T09:32:10;95429.44;;;22.87;40.76
22389;BME280;11362;48.102;11.620;2023-04-30T09:34:36;95436.19;;;22.86;40.51
22389;BME280;11362;48.102;11.620;2023-04-30T09:37:01;95432.63;;;22.85;40.47
22389;BME280;11362;48.102;11.620;2023-04-30T09:39:27;95434.19;;;22.86;40.53
22389;BME280;11362;48.102;11.620;2023-04-30T09:41:52;95430.63;;;22.86;40.44
22389;BME280;11362;48.102;11.620;2023-04-30T09:44:35;95430.28;;;22.84;40.39
22389;BME280;11362;48.102;11.620;2023-04-30T09:47:00;95431.84;;;22.85;40.57
22389;BME280;11362;48.102;11.620;2023-04-30T09:49:26;95440.94;;;22.82;40.56
22389;BME280;11362;48.102;11.620;2023-04-30T09:52:01;95435.38;;;22.85;40.76
22389;BME280;11362;48.102;11.620;2023-04-30T09:54:28;95432.22;;;22.87;40.55
22389;BME280;11362;48.102;11.620;2023-04-30T09:56:55;95433.41;;;22.86;40.67
22389;BME280;11362;48.102;11.620;2023-04-30T09:59:21;95422.69;;;22.88;40.59
22389;BME280;11362;48.102;11.620;2023-04-30T10:01:47;95427.84;;;22.89;40.68
22389;BME280;11362;48.102;11.620;2023-04-30T10:04:14;95467.38;;;22.90;40.70
22389;BME280;11362;48.102;11.620;2023-04-30T10:06:41;95482.41;;;22.92;40.61
22389;BME280;11362;48.102;11.620;2023-04-30T10:09:07;95448.81;;;22.90;40.56
22389;BME280;11362;48.102;11.620;2023-04-30T10:11:34;95442.84;;;22.92;40.67
22389;BME280;11362;48.102;11.620;2023-04-30T10:14:10;95439.28;;;22.91;40.73
22389;BME280;11362;48.102;11.620;2023-04-30T10:19:21;95444.81;;;22.95;40.63
22389;BME280;11362;48.102;11.620;2023-04-30T10:21:47;95447.19;;;22.96;40.66
22389;BME280;11362;48.102;11.620;2023-04-30T10:24:14;95445.97;;;22.97;40.48
22389;BME280;11362;48.102;11.620;2023-04-30T10:26:40;95438.06;;;22.96;40.62
22389;BME280;11362;48.102;11.620;2023-04-30T10:29:06;95428.56;;;22.97;40.51
22389;BME280;11362;48.102;11.620;2023-04-30T10:31:31;95426.19;;;22.99;40.52
22389;BME280;11362;48.102;11.620;2023-04-30T10:34:13;95433.66;;;23.02;40.56
22389;BME280;11362;48.102;11.620;2023-04-30T10:36:45;95425.34;;;23.02;40.43
22389;BME280;11362;48.102;11.620;2023-04-30T10:39:11;95429.31;;;23.01;40.48
22389;BME280;11362;48.102;11.620;2023-04-30T10:41:37;95425.75;;;23.00;40.40
22389;BME280;11362;48.102;11.620;2023-04-30T10:44:06;95426.56;;;23.01;40.46
22389;BME280;11362;48.102;11.620;2023-04-30T10:46:33;95414.28;;;23.02;40.57
22389;BME280;11362;48.102;11.620;2023-04-30T10:48:59;95405.59;;;23.00;40.68
22389;BME280;11362;48.102;11.620;2023-04-30T10:51:43;95412.66;;;23.04;40.42
22389;BME280;11362;48.102;11.620;2023-04-30T10:54:08;95414.63;;;23.04;40.67
22389;BME280;11362;48.102;11.620;2023-04-30T10:56:34;95400.75;;;23.07;40.59
22389;BME280;11362;48.102;11.620;2023-04-30T10:59:00;95406.25;;;23.11;40.29
22389;BME280;11362;48.102;11.620;2023-04-30T11:01:25;95399.13;;;23.13;40.28
22389;BME280;11362;48.102;11.620;2023-04-30T11:04:10;95395.94;;;23.18;40.27
22389;BME280;11362;48.102;11.620;2023-04-30T11:09:17;95389.97;;;23.20;40.13
22389;BME280;11362;48.102;11.620;2023-04-30T11:11:45;95390.41;;;23.18;40.19
22389;BME280;11362;48.102;11.620;2023-04-30T11:14:11;95390.78;;;23.17;40.15
22389;BME280;11362;48.102;11.620;2023-04-30T11:16:37;95396.72;;;23.19;40.16
22389;BME280;11362;48.102;11.620;2023-04-30T11:19:08;95388.03;;;23.17;40.12
22389;BME280;11362;48.102;11.620;2023-04-30T11:21:39;95386.06;;;23.17;40.20
22389;BME280;11362;48.102;11.620;2023-04-30T11:24:06;95385.66;;;23.15;40.29
22389;BME280;11362;48.102;11.620;2023-04-30T11:27:02;95393.56;;;23.17;40.34
22389;BME280;11362;48.102;11.620;2023-04-30T11:29:27;95386.81;;;23.18;40.10
22389;BME280;11362;48.102;11.620;2023-04-30T11:31:53;95389.22;;;23.16;40.21
22389;BME280;11362;48.102;11.620;2023-04-30T11:34:18;95380.06;;;23.19;40.12
22389;BME280;11362;48.102;11.620;2023-04-30T11:36:45;95379.69;;;23.20;40.11
22389;BME280;11362;48.102;11.620;2023-04-30T11:39:10;95377.72;;;23.21;40.13
22389;BME280;11362;48.102;11.620;2023-04-30T11:41:42;95376.53;;;23.18;40.08
22389;BME280;11362;48.102;11.620;2023-04-30T11:44:26;95374.53;;;23.19;40.15
22389;BME280;11362;48.102;11.620;2023-04-30T11:46:52;95372.59;;;23.16;39.88
22389;BME280;11362;48.102;11.620;2023-04-30T11:49:19;95377.34;;;23.15;40.26
22389;BME280;11362;48.102;11.620;2023-04-30T11:51:47;95385.25;;;23.17;40.25
22389;BME280;11362;48.102;11.620;2023-04-30T11:54:13;95383.28;;;23.17;40.14
22389;BME280;11362;48.102;11.620;2023-04-30T11:56:38;95380.50;;;23.17;40.14
22389;BME280;11362;48.102;11.620;2023-04-30T11:59:09;95380.50;;;23.17;40.18
22389;BME280;11362;48.102;11.620;2023-04-30T12:01:35;95375.38;;;23.16;40.19
22389;BME280;11362;48.102;11.620;2023-04-30T12:04:00;95379.31;;;23.15;40.14
22389;BME280;11362;48.102;11.620;2023-04-30T12:06:27;95380.13;;;23.15;40.03
22389;BME280;11362;48.102;11.620;2023-04-30T12:08:53;95382.47;;;23.17;39.88
22389;BME280;11362;48.102;11.620;2023-04-30T12:11:23;95372.97;;;23.18;40.13
22389;BME280;11362;48.102;11.620;2023-04-30T12:14:15;95378.50;;;23.18;40.04
22389;BME280;11362;48.102;11.620;2023-04-30T12:16:46;95373.75;;;23.18;39.92
22389;BME280;11362;48.102;11.620;2023-04-30T12:19:11;95372.97;;;23.18;40.09
22389;BME280;11362;48.102;11.620;2023-04-30T12:21:38;95373.41;;;23.16;39.99
22389;BME280;11362;48.102;11.620;2023-04-30T12:24:03;95377.31;;;23.19;39.97
22389;BME280;11362;48.102;11.620;2023-04-30T12:26:38;95371.75;;;23.19;39.92
22389;BME280;11362;48.102;11.620;2023-04-30T12:29:04;95372.19;;;23.17;39.96
22389;BME280;11362;48.102;11.620;2023-04-30T12:31:31;95369.00;;;23.19;39.95
22389;BME280;11362;48.102;11.620;2023-04-30T12:33:56;95374.53;;;23.19;39.95
22389;BME280;11362;48.102;11.620;2023-04-30T12:36:28;95365.03;;;23.20;39.86
22389;BME280;11362;48.102;11.620;2023-04-30T12:39:07;95366.63;;;23.21;39.85
22389;BME280;11362;48.102;11.620;2023-04-30T12:41:38;95357.84;;;23.26;39.90
22389;BME280;11362;48.102;11.620;2023-04-30T12:44:17;95356.22;;;23.28;39.71
22389;BME280;11362;48.102;11.620;2023-04-30T12:46:43;95361.00;;;23.28;39.78
22389;BME280;11362;48.102;11.620;2023-04-30T12:49:08;95354.97;;;23.33;39.69
22389;BME280;11362;48.102;11.620;2023-04-30T12:51:36;95347.06;;;23.35;39.76
22389;BME280;11362;48.102;11.620;2023-04-30T12:54:02;95345.47;;;23.33;39.79
22389;BME280;11362;48.102;11.620;2023-04-30T12:56:27;95340.31;;;23.36;39.68
22389;BME280;11362;48.102;11.620;2023-04-30T12:58:53;95337.09;;;23.37;39.65
22389;BME280;11362;48.102;11.620;2023-04-30T13:01:21;95335.50;;;23.39;39.58
22389;BME280;11362;48.102;11.620;2023-04-30T13:03:47;95338.66;;;23.42;39.53